KESF

Alexandria/Esler Regional Airport

Airport
ICAO code
KESF
IATA Code
ESF
Summary
ICAO Region
NAM
ICAO Territory
Location

Alexandria, Rapides Parish, Louisiana

Serving
Alexandria
Elevation
112 ft
Coordinates
31° 23' 42" N , 92° 17' 45" W
KCC
Metar
Observation
KESF 030153Z AUTO 00000KT 10SM CLR 16/13 A3010 RMK AO2 SLP193 T01560128
Station
Alexandria, Alexandria Esler Regional Airport
Date/Time
2022-10-03 01:53:00
Wind direction
Wind speed
00 kts
Lowest cloud amount
n/a
Temperature
15.6°C
Dew point
12.8°C
Humidity
83%
Weather condition
n/a

Description

Esler Regional Airport is a Louisiana Army National Guard Airfield with limited public use and is located 10 nm northeast of the central business district of Alexandria, a city in Rapides Parish, Louisiana, United States.

Climatology

Humid “subtropical” climate (Köppen climate classification Cfa) - characterized by hot, humid summers and cool winters. Significant amounts of precipitation occur in all seasons in most areas. Winter rainfall (and sometimes snowfall) is associated with large storms that the westerlies steer from west to east. Most summer rainfall occurs during thunderstorms and occasional tropical storms (hurricanes).

Airport map

Aerial View

SKYbrary Partners:

Safety knowledge contributed by: